Airport View

Enter AWOS ICAO identifier for current METAR.

ex. KFNL

KGPT 120553Z AUTO 02007KT 10SM CLR 06/M01 A3037 RMK AO2 SLP282 T00611011 10100 20056 401220056 58017

12 Dec 2019 06:31

Phone: 228-867-9937

Other Area AWOS: KBIX - KHSA - KPQL

TAF KGPT 120533Z 1206/1306 02005KT P6SM SKC FM121100 05011G15KT P6SM BKN110 FM121400 06010G18KT P6SM BKN080 FM121500 07010KT P6SM BKN030 FM121700 08011KT P6SM OVC025 FM130300 07010KT P6SM OVC007